Terminal Aerodrome Forecast
Issued by NWS Sterling, VA

Current Version | Previous Version | Text Only | Print | Product List | Glossary Off
Versions: 1 2 3 4 5 6 7 8 9 10 11 12 13 14 15 16 17 18 19 20 21 22 23 24 25 26 27 28 29 30 31

000
FTUS41 KLWX 030542 RRA
TAFIAD
TAF
KIAD 030542Z 0306/0412 00000KT 3SM BR FEW250
     FM031000 VRB04KT P6SM SCT150
     FM031600 12004KT P6SM BKN040
     FM032200 13005KT 5SM -SHRA OVC050
     FM040400 14005KT P6SM OVC050=

USA.gov is the U.S. government's official web portal to all federal, state and local government web resources and services.